sensor_id;sensor_type;location;lat;lon;timestamp;P1;durP1;ratioP1;P2;durP2;ratioP2
65238;SDS011;51827;51.186;6.926;2022-09-21T00:01:08;5.10;;;1.93;;
65238;SDS011;51827;51.186;6.926;2022-09-21T00:02:16;4.18;;;2.10;;
65238;SDS011;51827;51.186;6.926;2022-09-21T00:03:16;4.67;;;1.97;;
65238;SDS011;51827;51.186;6.926;2022-09-21T00:04:17;3.40;;;1.70;;
65238;SDS011;51827;51.186;6.926;2022-09-21T00:05:17;3.37;;;1.70;;
65238;SDS011;51827;51.186;6.926;2022-09-21T00:06:18;2.77;;;1.60;;
65238;SDS011;51827;51.186;6.926;2022-09-21T00:07:19;4.93;;;1.80;;
65238;SDS011;51827;51.186;6.926;2022-09-21T00:08:19;2.90;;;1.60;;
65238;SDS011;51827;51.186;6.926;2022-09-21T00:09:20;3.17;;;1.90;;
65238;SDS011;51827;51.186;6.926;2022-09-21T00:10:20;3.40;;;1.80;;
65238;SDS011;51827;51.186;6.926;2022-09-21T00:11:25;6.78;;;2.20;;
65238;SDS011;51827;51.186;6.926;2022-09-21T00:12:28;3.05;;;1.60;;
65238;SDS011;51827;51.186;6.926;2022-09-21T00:13:28;3.30;;;1.83;;
65238;SDS011;51827;51.186;6.926;2022-09-21T00:14:28;2.50;;;1.47;;
65238;SDS011;51827;51.186;6.926;2022-09-21T00:15:29;3.03;;;1.70;;
65238;SDS011;51827;51.186;6.926;2022-09-21T00:16:30;3.33;;;1.60;;
65238;SDS011;51827;51.186;6.926;2022-09-21T00:17:30;2.85;;;1.70;;
65238;SDS011;51827;51.186;6.926;2022-09-21T00:18:31;4.10;;;1.80;;
65238;SDS011;51827;51.186;6.926;2022-09-21T00:19:33;3.30;;;1.70;;
65238;SDS011;51827;51.186;6.926;2022-09-21T00:40:08;3.08;;;1.60;;
65238;SDS011;51827;51.186;6.926;2022-09-21T00:41:09;3.03;;;1.75;;
65238;SDS011;51827;51.186;6.926;2022-09-21T00:42:29;3.22;;;1.70;;
65238;SDS011;51827;51.186;6.926;2022-09-21T00:43:35;3.83;;;1.77;;
65238;SDS011;51827;51.186;6.926;2022-09-21T00:44:39;3.00;;;1.70;;
65238;SDS011;51827;51.186;6.926;2022-09-21T00:45:39;3.07;;;1.53;;
65238;SDS011;51827;51.186;6.926;2022-09-21T00:46:41;2.67;;;1.63;;
65238;SDS011;51827;51.186;6.926;2022-09-21T00:47:43;2.97;;;1.80;;
65238;SDS011;51827;51.186;6.926;2022-09-21T00:48:44;4.82;;;1.63;;
65238;SDS011;51827;51.186;6.926;2022-09-21T00:49:45;3.47;;;1.70;;
65238;SDS011;51827;51.186;6.926;2022-09-21T00:50:48;3.90;;;1.90;;
65238;SDS011;51827;51.186;6.926;2022-09-21T00:51:51;3.30;;;1.73;;
65238;SDS011;51827;51.186;6.926;2022-09-21T00:52:52;3.15;;;1.70;;
65238;SDS011;51827;51.186;6.926;2022-09-21T00:53:57;2.72;;;1.65;;
65238;SDS011;51827;51.186;6.926;2022-09-21T00:55:10;2.75;;;1.60;;
65238;SDS011;51827;51.186;6.926;2022-09-21T00:56:20;3.25;;;1.65;;
65238;SDS011;51827;51.186;6.926;2022-09-21T00:57:22;3.72;;;1.70;;
65238;SDS011;51827;51.186;6.926;2022-09-21T00:58:26;3.92;;;1.98;;
65238;SDS011;51827;51.186;6.926;2022-09-21T00:59:36;3.88;;;1.67;;
65238;SDS011;51827;51.186;6.926;2022-09-21T01:00:38;5.03;;;1.50;;
65238;SDS011;51827;51.186;6.926;2022-09-21T01:01:38;3.60;;;1.95;;
65238;SDS011;51827;51.186;6.926;2022-09-21T01:02:39;4.07;;;1.83;;
65238;SDS011;51827;51.186;6.926;2022-09-21T01:03:39;2.95;;;1.60;;
65238;SDS011;51827;51.186;6.926;2022-09-21T01:04:40;2.63;;;1.67;;
65238;SDS011;51827;51.186;6.926;2022-09-21T01:05:40;2.40;;;1.40;;
65238;SDS011;51827;51.186;6.926;2022-09-21T01:06:40;3.90;;;1.70;;
65238;SDS011;51827;51.186;6.926;2022-09-21T01:07:44;3.85;;;1.80;;
65238;SDS011;51827;51.186;6.926;2022-09-21T01:08:46;2.80;;;1.65;;
65238;SDS011;51827;51.186;6.926;2022-09-21T01:09:51;3.15;;;1.60;;
65238;SDS011;51827;51.186;6.926;2022-09-21T01:10:59;3.10;;;1.80;;
65238;SDS011;51827;51.186;6.926;2022-09-21T01:16:29;3.45;;;1.55;;
65238;SDS011;51827;51.186;6.926;2022-09-21T01:17:55;4.25;;;1.75;;
65238;SDS011;51827;51.186;6.926;2022-09-21T01:19:43;2.72;;;1.70;;
65238;SDS011;51827;51.186;6.926;2022-09-21T01:27:03;3.17;;;2.07;;
65238;SDS011;51827;51.186;6.926;2022-09-21T01:28:22;10.10;;;1.73;;
65238;SDS011;51827;51.186;6.926;2022-09-21T01:30:01;4.60;;;1.83;;
65238;SDS011;51827;51.186;6.926;2022-09-21T01:31:04;3.42;;;1.60;;
65238;SDS011;51827;51.186;6.926;2022-09-21T01:33:31;3.67;;;1.50;;
65238;SDS011;51827;51.186;6.926;2022-09-21T01:35:49;2.95;;;1.50;;
65238;SDS011;51827;51.186;6.926;2022-09-21T01:36:56;4.10;;;1.67;;
65238;SDS011;51827;51.186;6.926;2022-09-21T01:38:01;3.95;;;1.60;;
65238;SDS011;51827;51.186;6.926;2022-09-21T01:39:06;3.20;;;1.73;;
65238;SDS011;51827;51.186;6.926;2022-09-21T01:40:18;3.80;;;1.85;;
65238;SDS011;51827;51.186;6.926;2022-09-21T01:41:21;3.53;;;1.80;;
65238;SDS011;51827;51.186;6.926;2022-09-21T01:42:26;4.95;;;1.70;;
65238;SDS011;51827;51.186;6.926;2022-09-21T01:43:33;3.45;;;1.55;;
65238;SDS011;51827;51.186;6.926;2022-09-21T01:44:36;3.55;;;1.70;;
65238;SDS011;51827;51.186;6.926;2022-09-21T01:45:39;5.57;;;1.88;;
65238;SDS011;51827;51.186;6.926;2022-09-21T01:46:44;4.72;;;1.67;;
65238;SDS011;51827;51.186;6.926;2022-09-21T01:47:46;3.03;;;1.52;;
65238;SDS011;51827;51.186;6.926;2022-09-21T01:48:49;2.47;;;1.50;;
65238;SDS011;51827;51.186;6.926;2022-09-21T01:49:54;4.05;;;1.70;;
65238;SDS011;51827;51.186;6.926;2022-09-21T01:50:56;3.05;;;1.75;;
65238;SDS011;51827;51.186;6.926;2022-09-21T01:51:59;3.47;;;1.48;;
65238;SDS011;51827;51.186;6.926;2022-09-21T01:53:05;4.35;;;1.85;;
65238;SDS011;51827;51.186;6.926;2022-09-21T01:54:11;3.78;;;1.80;;
65238;SDS011;51827;51.186;6.926;2022-09-21T01:55:19;3.20;;;1.60;;
65238;SDS011;51827;51.186;6.926;2022-09-21T01:56:26;3.17;;;1.77;;
65238;SDS011;51827;51.186;6.926;2022-09-21T01:59:10;2.88;;;1.75;;
65238;SDS011;51827;51.186;6.926;2022-09-21T02:00:16;3.22;;;1.60;;
65238;SDS011;51827;51.186;6.926;2022-09-21T02:01:17;2.70;;;1.60;;
65238;SDS011;51827;51.186;6.926;2022-09-21T02:03:06;3.25;;;1.60;;
65238;SDS011;51827;51.186;6.926;2022-09-21T02:03:56;3.75;;;1.60;;
65238;SDS011;51827;51.186;6.926;2022-09-21T02:05:00;3.13;;;1.67;;
65238;SDS011;51827;51.186;6.926;2022-09-21T02:06:02;3.55;;;1.60;;
65238;SDS011;51827;51.186;6.926;2022-09-21T02:07:05;2.72;;;1.50;;
65238;SDS011;51827;51.186;6.926;2022-09-21T02:08:06;3.28;;;1.58;;
65238;SDS011;51827;51.186;6.926;2022-09-21T02:09:07;3.53;;;1.70;;
65238;SDS011;51827;51.186;6.926;2022-09-21T02:10:10;4.43;;;1.80;;
65238;SDS011;51827;51.186;6.926;2022-09-21T02:11:16;4.30;;;1.70;;
65238;SDS011;51827;51.186;6.926;2022-09-21T02:12:16;3.67;;;1.70;;
65238;SDS011;51827;51.186;6.926;2022-09-21T02:13:17;2.23;;;1.43;;
65238;SDS011;51827;51.186;6.926;2022-09-21T02:14:19;3.67;;;1.63;;
65238;SDS011;51827;51.186;6.926;2022-09-21T02:15:22;3.75;;;1.60;;
65238;SDS011;51827;51.186;6.926;2022-09-21T02:16:38;2.55;;;1.40;;
65238;SDS011;51827;51.186;6.926;2022-09-21T02:17:46;4.38;;;1.52;;
65238;SDS011;51827;51.186;6.926;2022-09-21T02:19:20;3.83;;;1.70;;
65238;SDS011;51827;51.186;6.926;2022-09-21T02:20:31;2.28;;;1.55;;
65238;SDS011;51827;51.186;6.926;2022-09-21T02:23:13;3.78;;;1.80;;
65238;SDS011;51827;51.186;6.926;2022-09-21T02:24:32;2.97;;;1.48;;
65238;SDS011;51827;51.186;6.926;2022-09-21T02:26:52;2.80;;;1.50;;
65238;SDS011;51827;51.186;6.926;2022-09-21T02:28:00;4.38;;;1.65;;
65238;SDS011;51827;51.186;6.926;2022-09-21T02:29:18;2.97;;;1.60;;
65238;SDS011;51827;51.186;6.926;2022-09-21T02:30:24;3.10;;;1.63;;
65238;SDS011;51827;51.186;6.926;2022-09-21T02:33:57;4.25;;;1.80;;
65238;SDS011;51827;51.186;6.926;2022-09-21T02:36:44;3.72;;;1.90;;
65238;SDS011;51827;51.186;6.926;2022-09-21T02:37:52;8.48;;;1.60;;
65238;SDS011;51827;51.186;6.926;2022-09-21T02:39:11;3.15;;;1.42;;
65238;SDS011;51827;51.186;6.926;2022-09-21T02:42:37;3.88;;;1.50;;
65238;SDS011;51827;51.186;6.926;2022-09-21T02:43:49;2.13;;;1.40;;
65238;SDS011;51827;51.186;6.926;2022-09-21T02:45:07;2.50;;;1.58;;
65238;SDS011;51827;51.186;6.926;2022-09-21T02:46:20;2.33;;;1.50;;
65238;SDS011;51827;51.186;6.926;2022-09-21T02:47:28;6.85;;;1.55;;
65238;SDS011;51827;51.186;6.926;2022-09-21T02:48:41;3.15;;;1.63;;
65238;SDS011;51827;51.186;6.926;2022-09-21T02:49:50;2.83;;;1.50;;
65238;SDS011;51827;51.186;6.926;2022-09-21T02:50:53;3.30;;;1.80;;
65238;SDS011;51827;51.186;6.926;2022-09-21T02:51:59;3.30;;;1.60;;
65238;SDS011;51827;51.186;6.926;2022-09-21T02:53:04;2.97;;;1.92;;
65238;SDS011;51827;51.186;6.926;2022-09-21T02:54:06;2.97;;;1.40;;
65238;SDS011;51827;51.186;6.926;2022-09-21T02:55:09;2.65;;;1.50;;
65238;SDS011;51827;51.186;6.926;2022-09-21T02:56:12;3.42;;;1.52;;
65238;SDS011;51827;51.186;6.926;2022-09-21T02:57:13;5.93;;;1.60;;
65238;SDS011;51827;51.186;6.926;2022-09-21T02:58:16;2.67;;;1.50;;
65238;SDS011;51827;51.186;6.926;2022-09-21T02:59:19;2.28;;;1.35;;
65238;SDS011;51827;51.186;6.926;2022-09-21T03:00:19;3.17;;;1.83;;
65238;SDS011;51827;51.186;6.926;2022-09-21T03:01:20;2.83;;;1.48;;
65238;SDS011;51827;51.186;6.926;2022-09-21T03:02:21;4.13;;;1.50;;
65238;SDS011;51827;51.186;6.926;2022-09-21T03:03:22;2.95;;;1.60;;
65238;SDS011;51827;51.186;6.926;2022-09-21T03:05:23;4.07;;;1.43;;
65238;SDS011;51827;51.186;6.926;2022-09-21T03:06:24;3.75;;;1.95;;
65238;SDS011;51827;51.186;6.926;2022-09-21T03:07:25;2.50;;;1.55;;
65238;SDS011;51827;51.186;6.926;2022-09-21T03:08:25;3.83;;;1.40;;
65238;SDS011;51827;51.186;6.926;2022-09-21T03:09:26;3.37;;;1.53;;
65238;SDS011;51827;51.186;6.926;2022-09-21T03:10:26;3.40;;;1.43;;
65238;SDS011;51827;51.186;6.926;2022-09-21T03:11:26;2.60;;;1.57;;
65238;SDS011;51827;51.186;6.926;2022-09-21T03:12:26;2.77;;;1.50;;
65238;SDS011;51827;51.186;6.926;2022-09-21T03:13:27;3.30;;;1.40;;
65238;SDS011;51827;51.186;6.926;2022-09-21T03:14:28;2.93;;;1.50;;
65238;SDS011;51827;51.186;6.926;2022-09-21T03:15:28;1.97;;;1.10;;
65238;SDS011;51827;51.186;6.926;2022-09-21T03:16:28;4.43;;;1.50;;
65238;SDS011;51827;51.186;6.926;2022-09-21T03:17:28;2.70;;;1.60;;
65238;SDS011;51827;51.186;6.926;2022-09-21T03:18:29;2.57;;;1.70;;
65238;SDS011;51827;51.186;6.926;2022-09-21T03:19:29;2.28;;;1.40;;
65238;SDS011;51827;51.186;6.926;2022-09-21T03:20:32;3.63;;;1.60;;
65238;SDS011;51827;51.186;6.926;2022-09-21T03:21:33;3.53;;;1.50;;
65238;SDS011;51827;51.186;6.926;2022-09-21T03:22:33;2.70;;;1.57;;
65238;SDS011;51827;51.186;6.926;2022-09-21T03:23:33;3.00;;;1.67;;
65238;SDS011;51827;51.186;6.926;2022-09-21T03:24:34;3.27;;;1.63;;
65238;SDS011;51827;51.186;6.926;2022-09-21T03:25:34;4.17;;;1.70;;
65238;SDS011;51827;51.186;6.926;2022-09-21T03:26:34;2.40;;;1.40;;
65238;SDS011;51827;51.186;6.926;2022-09-21T03:27:34;3.40;;;1.80;;
65238;SDS011;51827;51.186;6.926;2022-09-21T03:28:35;4.17;;;1.50;;
65238;SDS011;51827;51.186;6.926;2022-09-21T03:29:35;2.03;;;1.40;;
65238;SDS011;51827;51.186;6.926;2022-09-21T03:30:35;3.92;;;1.60;;
65238;SDS011;51827;51.186;6.926;2022-09-21T03:31:36;2.43;;;1.53;;
65238;SDS011;51827;51.186;6.926;2022-09-21T03:32:36;2.10;;;1.20;;
65238;SDS011;51827;51.186;6.926;2022-09-21T03:33:36;3.00;;;1.67;;
65238;SDS011;51827;51.186;6.926;2022-09-21T03:34:36;2.63;;;1.40;;
65238;SDS011;51827;51.186;6.926;2022-09-21T03:35:37;2.20;;;1.40;;
65238;SDS011;51827;51.186;6.926;2022-09-21T03:36:38;3.20;;;1.42;;
65238;SDS011;51827;51.186;6.926;2022-09-21T03:37:38;3.63;;;1.77;;
65238;SDS011;51827;51.186;6.926;2022-09-21T03:38:39;3.47;;;1.50;;
65238;SDS011;51827;51.186;6.926;2022-09-21T03:39:39;3.43;;;1.47;;
65238;SDS011;51827;51.186;6.926;2022-09-21T03:40:39;3.10;;;1.50;;
65238;SDS011;51827;51.186;6.926;2022-09-21T03:41:39;2.37;;;1.40;;
65238;SDS011;51827;51.186;6.926;2022-09-21T03:42:40;2.20;;;1.40;;
65238;SDS011;51827;51.186;6.926;2022-09-21T03:43:41;3.17;;;1.42;;
65238;SDS011;51827;51.186;6.926;2022-09-21T03:44:41;3.30;;;1.33;;
65238;SDS011;51827;51.186;6.926;2022-09-21T03:45:41;2.67;;;1.40;;
65238;SDS011;51827;51.186;6.926;2022-09-21T03:46:42;2.70;;;1.48;;
65238;SDS011;51827;51.186;6.926;2022-09-21T03:47:43;3.00;;;1.50;;
65238;SDS011;51827;51.186;6.926;2022-09-21T03:48:43;7.57;;;1.67;;
65238;SDS011;51827;51.186;6.926;2022-09-21T03:49:43;6.57;;;1.63;;
65238;SDS011;51827;51.186;6.926;2022-09-21T03:50:43;4.83;;;1.67;;
65238;SDS011;51827;51.186;6.926;2022-09-21T03:51:44;5.65;;;1.83;;
65238;SDS011;51827;51.186;6.926;2022-09-21T03:52:44;5.82;;;2.17;;
65238;SDS011;51827;51.186;6.926;2022-09-21T03:53:45;4.38;;;1.80;;
65238;SDS011;51827;51.186;6.926;2022-09-21T03:54:45;4.97;;;2.03;;
65238;SDS011;51827;51.186;6.926;2022-09-21T03:55:46;3.60;;;1.53;;
65238;SDS011;51827;51.186;6.926;2022-09-21T03:56:46;5.07;;;1.77;;
65238;SDS011;51827;51.186;6.926;2022-09-21T03:57:46;5.27;;;1.67;;
65238;SDS011;51827;51.186;6.926;2022-09-21T03:58:47;5.75;;;1.65;;
65238;SDS011;51827;51.186;6.926;2022-09-21T03:59:47;6.33;;;1.80;;
65238;SDS011;51827;51.186;6.926;2022-09-21T04:00:48;4.50;;;1.90;;
65238;SDS011;51827;51.186;6.926;2022-09-21T04:01:48;3.73;;;1.67;;
65238;SDS011;51827;51.186;6.926;2022-09-21T04:02:49;3.87;;;1.50;;
65238;SDS011;51827;51.186;6.926;2022-09-21T04:03:49;3.13;;;1.40;;
65238;SDS011;51827;51.186;6.926;2022-09-21T04:04:49;4.80;;;1.60;;
65238;SDS011;51827;51.186;6.926;2022-09-21T04:05:49;5.53;;;2.10;;
65238;SDS011;51827;51.186;6.926;2022-09-21T04:06:50;6.23;;;1.83;;
65238;SDS011;51827;51.186;6.926;2022-09-21T04:07:50;6.23;;;2.13;;
65238;SDS011;51827;51.186;6.926;2022-09-21T04:08:50;4.23;;;1.53;;
65238;SDS011;51827;51.186;6.926;2022-09-21T04:09:51;6.23;;;2.20;;
65238;SDS011;51827;51.186;6.926;2022-09-21T04:10:51;12.77;;;1.60;;
65238;SDS011;51827;51.186;6.926;2022-09-21T04:11:51;4.27;;;1.80;;
65238;SDS011;51827;51.186;6.926;2022-09-21T04:12:52;4.03;;;1.93;;
65238;SDS011;51827;51.186;6.926;2022-09-21T04:13:56;3.45;;;1.60;;
65238;SDS011;51827;51.186;6.926;2022-09-21T04:14:56;3.97;;;1.63;;
65238;SDS011;51827;51.186;6.926;2022-09-21T04:15:57;4.17;;;1.63;;
65238;SDS011;51827;51.186;6.926;2022-09-21T04:16:57;5.93;;;1.73;;
65238;SDS011;51827;51.186;6.926;2022-09-21T04:17:57;4.67;;;1.77;;
65238;SDS011;51827;51.186;6.926;2022-09-21T04:18:58;5.07;;;1.70;;
65238;SDS011;51827;51.186;6.926;2022-09-21T04:19:58;3.10;;;1.60;;
65238;SDS011;51827;51.186;6.926;2022-09-21T04:20:58;3.88;;;1.42;;
65238;SDS011;51827;51.186;6.926;2022-09-21T04:21:59;4.23;;;1.60;;
65238;SDS011;51827;51.186;6.926;2022-09-21T04:22:59;4.47;;;1.70;;
65238;SDS011;51827;51.186;6.926;2022-09-21T04:23:59;3.50;;;1.43;;
65238;SDS011;51827;51.186;6.926;2022-09-21T04:25:00;3.92;;;1.33;;
65238;SDS011;51827;51.186;6.926;2022-09-21T04:26:00;4.07;;;1.70;;
65238;SDS011;51827;51.186;6.926;2022-09-21T04:27:01;5.72;;;2.80;;
65238;SDS011;51827;51.186;6.926;2022-09-21T04:28:01;5.93;;;2.90;;
65238;SDS011;51827;51.186;6.926;2022-09-21T04:29:01;7.63;;;4.45;;
65238;SDS011;51827;51.186;6.926;2022-09-21T04:30:02;12.20;;;5.15;;
65238;SDS011;51827;51.186;6.926;2022-09-21T04:32:04;11.53;;;6.67;;
65238;SDS011;51827;51.186;6.926;2022-09-21T04:33:04;12.55;;;6.88;;
65238;SDS011;51827;51.186;6.926;2022-09-21T04:34:05;13.47;;;6.87;;
65238;SDS011;51827;51.186;6.926;2022-09-21T04:35:05;13.90;;;7.72;;
65238;SDS011;51827;51.186;6.926;2022-09-21T04:36:06;13.07;;;6.65;;
65238;SDS011;51827;51.186;6.926;2022-09-21T04:37:06;15.67;;;6.57;;
65238;SDS011;51827;51.186;6.926;2022-09-21T04:38:08;12.43;;;6.20;;
65238;SDS011;51827;51.186;6.926;2022-09-21T04:39:08;12.03;;;6.20;;
65238;SDS011;51827;51.186;6.926;2022-09-21T04:40:08;9.83;;;6.10;;
65238;SDS011;51827;51.186;6.926;2022-09-21T04:41:09;21.83;;;6.75;;
65238;SDS011;51827;51.186;6.926;2022-09-21T04:42:10;14.95;;;6.07;;
65238;SDS011;51827;51.186;6.926;2022-09-21T04:43:10;14.90;;;6.63;;
65238;SDS011;51827;51.186;6.926;2022-09-21T04:44:10;15.90;;;6.70;;
65238;SDS011;51827;51.186;6.926;2022-09-21T04:45:10;31.43;;;6.20;;
65238;SDS011;51827;51.186;6.926;2022-09-21T04:46:11;14.30;;;5.87;;
65238;SDS011;51827;51.186;6.926;2022-09-21T04:47:13;15.25;;;6.00;;
65238;SDS011;51827;51.186;6.926;2022-09-21T04:48:14;12.63;;;5.80;;
65238;SDS011;51827;51.186;6.926;2022-09-21T04:49:14;22.40;;;6.63;;
65238;SDS011;51827;51.186;6.926;2022-09-21T04:50:14;22.90;;;5.77;;
65238;SDS011;51827;51.186;6.926;2022-09-21T04:51:15;23.27;;;7.15;;
65238;SDS011;51827;51.186;6.926;2022-09-21T04:52:16;22.40;;;6.25;;
65238;SDS011;51827;51.186;6.926;2022-09-21T04:53:16;20.17;;;5.50;;
65238;SDS011;51827;51.186;6.926;2022-09-21T04:54:17;13.50;;;5.63;;
65238;SDS011;51827;51.186;6.926;2022-09-21T04:55:17;11.93;;;5.27;;
65238;SDS011;51827;51.186;6.926;2022-09-21T04:56:17;16.23;;;5.10;;
65238;SDS011;51827;51.186;6.926;2022-09-21T04:57:17;13.80;;;5.57;;
65238;SDS011;51827;51.186;6.926;2022-09-21T04:58:18;14.97;;;5.20;;
65238;SDS011;51827;51.186;6.926;2022-09-21T04:59:18;14.60;;;4.83;;
65238;SDS011;51827;51.186;6.926;2022-09-21T05:00:18;11.53;;;5.43;;
65238;SDS011;51827;51.186;6.926;2022-09-21T05:01:19;21.83;;;5.30;;
65238;SDS011;51827;51.186;6.926;2022-09-21T05:02:19;15.25;;;5.60;;
65238;SDS011;51827;51.186;6.926;2022-09-21T05:03:19;10.93;;;5.07;;
65238;SDS011;51827;51.186;6.926;2022-09-21T05:04:20;11.52;;;4.85;;
65238;SDS011;51827;51.186;6.926;2022-09-21T05:05:20;13.97;;;5.07;;
65238;SDS011;51827;51.186;6.926;2022-09-21T05:06:21;15.17;;;4.77;;
65238;SDS011;51827;51.186;6.926;2022-09-21T05:07:21;13.17;;;4.77;;
65238;SDS011;51827;51.186;6.926;2022-09-21T05:08:22;10.93;;;4.63;;
65238;SDS011;51827;51.186;6.926;2022-09-21T05:09:24;11.65;;;4.90;;
65238;SDS011;51827;51.186;6.926;2022-09-21T05:10:24;11.43;;;4.50;;
65238;SDS011;51827;51.186;6.926;2022-09-21T05:11:24;13.68;;;4.80;;
65238;SDS011;51827;51.186;6.926;2022-09-21T05:12:25;13.13;;;4.82;;
65238;SDS011;51827;51.186;6.926;2022-09-21T05:13:25;11.50;;;4.50;;
65238;SDS011;51827;51.186;6.926;2022-09-21T05:14:25;10.07;;;3.90;;
65238;SDS011;51827;51.186;6.926;2022-09-21T05:15:26;11.93;;;3.90;;
65238;SDS011;51827;51.186;6.926;2022-09-21T05:16:26;11.07;;;4.10;;
65238;SDS011;51827;51.186;6.926;2022-09-21T05:17:26;9.63;;;3.43;;
65238;SDS011;51827;51.186;6.926;2022-09-21T05:18:27;14.63;;;4.00;;
65238;SDS011;51827;51.186;6.926;2022-09-21T05:19:27;12.33;;;3.90;;
65238;SDS011;51827;51.186;6.926;2022-09-21T05:20:27;15.40;;;3.83;;
65238;SDS011;51827;51.186;6.926;2022-09-21T05:21:27;13.10;;;4.07;;
65238;SDS011;51827;51.186;6.926;2022-09-21T05:22:28;11.03;;;3.90;;
65238;SDS011;51827;51.186;6.926;2022-09-21T05:23:29;12.13;;;3.47;;
65238;SDS011;51827;51.186;6.926;2022-09-21T05:24:30;9.05;;;3.63;;
65238;SDS011;51827;51.186;6.926;2022-09-21T05:25:30;10.57;;;3.43;;
65238;SDS011;51827;51.186;6.926;2022-09-21T05:26:30;11.20;;;3.53;;
65238;SDS011;51827;51.186;6.926;2022-09-21T05:27:31;10.23;;;3.43;;
65238;SDS011;51827;51.186;6.926;2022-09-21T05:28:31;7.73;;;3.13;;
65238;SDS011;51827;51.186;6.926;2022-09-21T05:30:32;15.43;;;3.22;;
65238;SDS011;51827;51.186;6.926;2022-09-21T05:31:50;11.65;;;3.67;;
65238;SDS011;51827;51.186;6.926;2022-09-21T05:32:56;9.88;;;3.42;;
65238;SDS011;51827;51.186;6.926;2022-09-21T05:35:27;9.82;;;3.30;;
65238;SDS011;51827;51.186;6.926;2022-09-21T05:38:51;6.97;;;2.95;;
65238;SDS011;51827;51.186;6.926;2022-09-21T05:39:51;6.97;;;2.80;;
65238;SDS011;51827;51.186;6.926;2022-09-21T05:40:52;7.65;;;2.90;;
65238;SDS011;51827;51.186;6.926;2022-09-21T05:41:52;6.28;;;2.47;;
65238;SDS011;51827;51.186;6.926;2022-09-21T05:42:53;9.20;;;3.40;;
65238;SDS011;51827;51.186;6.926;2022-09-21T05:43:53;8.32;;;3.33;;
65238;SDS011;51827;51.186;6.926;2022-09-21T05:44:54;7.93;;;2.50;;
65238;SDS011;51827;51.186;6.926;2022-09-21T05:45:57;6.15;;;2.65;;
65238;SDS011;51827;51.186;6.926;2022-09-21T05:48:15;7.03;;;2.40;;
65238;SDS011;51827;51.186;6.926;2022-09-21T05:49:19;5.72;;;2.50;;
65238;SDS011;51827;51.186;6.926;2022-09-21T05:54:20;6.03;;;2.40;;
65238;SDS011;51827;51.186;6.926;2022-09-21T05:56:50;6.30;;;2.58;;
65238;SDS011;51827;51.186;6.926;2022-09-21T06:01:05;7.65;;;2.70;;
65238;SDS011;51827;51.186;6.926;2022-09-21T06:03:31;6.97;;;2.30;;
65238;SDS011;51827;51.186;6.926;2022-09-21T06:05:32;6.33;;;2.47;;
65238;SDS011;51827;51.186;6.926;2022-09-21T06:06:32;8.17;;;2.60;;
65238;SDS011;51827;51.186;6.926;2022-09-21T06:07:32;9.60;;;2.33;;
65238;SDS011;51827;51.186;6.926;2022-09-21T06:08:33;7.33;;;2.47;;
65238;SDS011;51827;51.186;6.926;2022-09-21T06:09:33;3.97;;;2.13;;
65238;SDS011;51827;51.186;6.926;2022-09-21T06:10:33;6.17;;;2.43;;
65238;SDS011;51827;51.186;6.926;2022-09-21T06:11:34;7.05;;;2.28;;
65238;SDS011;51827;51.186;6.926;2022-09-21T06:12:34;6.33;;;2.23;;
65238;SDS011;51827;51.186;6.926;2022-09-21T06:13:35;6.03;;;2.50;;
65238;SDS011;51827;51.186;6.926;2022-09-21T06:14:35;6.00;;;2.47;;
65238;SDS011;51827;51.186;6.926;2022-09-21T06:15:36;5.28;;;2.20;;
65238;SDS011;51827;51.186;6.926;2022-09-21T06:16:40;5.57;;;2.13;;
65238;SDS011;51827;51.186;6.926;2022-09-21T06:17:41;5.03;;;2.22;;
65238;SDS011;51827;51.186;6.926;2022-09-21T06:18:42;5.22;;;2.10;;
65238;SDS011;51827;51.186;6.926;2022-09-21T06:19:42;4.43;;;2.03;;
65238;SDS011;51827;51.186;6.926;2022-09-21T06:20:42;6.47;;;2.33;;
65238;SDS011;51827;51.186;6.926;2022-09-21T06:21:43;5.90;;;1.90;;
65238;SDS011;51827;51.186;6.926;2022-09-21T06:22:43;5.45;;;2.30;;
65238;SDS011;51827;51.186;6.926;2022-09-21T06:23:43;7.87;;;2.00;;
65238;SDS011;51827;51.186;6.926;2022-09-21T06:24:43;5.93;;;1.93;;
65238;SDS011;51827;51.186;6.926;2022-09-21T06:25:49;4.73;;;1.97;;
65238;SDS011;51827;51.186;6.926;2022-09-21T06:26:50;8.95;;;2.10;;
65238;SDS011;51827;51.186;6.926;2022-09-21T06:27:50;5.37;;;1.97;;
65238;SDS011;51827;51.186;6.926;2022-09-21T06:28:50;10.07;;;2.50;;
65238;SDS011;51827;51.186;6.926;2022-09-21T06:29:51;4.17;;;2.00;;
65238;SDS011;51827;51.186;6.926;2022-09-21T06:30:51;5.33;;;2.00;;
65238;SDS011;51827;51.186;6.926;2022-09-21T06:31:53;5.28;;;1.88;;
65238;SDS011;51827;51.186;6.926;2022-09-21T06:32:53;8.13;;;1.83;;
65238;SDS011;51827;51.186;6.926;2022-09-21T06:33:53;5.10;;;1.90;;
65238;SDS011;51827;51.186;6.926;2022-09-21T06:34:54;4.72;;;1.98;;
65238;SDS011;51827;51.186;6.926;2022-09-21T06:35:55;4.60;;;2.27;;
65238;SDS011;51827;51.186;6.926;2022-09-21T06:36:57;4.35;;;1.98;;
65238;SDS011;51827;51.186;6.926;2022-09-21T06:37:58;3.60;;;2.07;;
65238;SDS011;51827;51.186;6.926;2022-09-21T06:39:02;5.97;;;1.80;;
65238;SDS011;51827;51.186;6.926;2022-09-21T06:40:02;5.13;;;2.20;;
65238;SDS011;51827;51.186;6.926;2022-09-21T06:41:03;3.60;;;1.73;;
65238;SDS011;51827;51.186;6.926;2022-09-21T06:42:04;4.35;;;1.95;;
65238;SDS011;51827;51.186;6.926;2022-09-21T06:43:04;4.80;;;2.00;;
65238;SDS011;51827;51.186;6.926;2022-09-21T06:44:04;5.95;;;1.88;;
65238;SDS011;51827;51.186;6.926;2022-09-21T06:45:05;3.43;;;1.60;;
65238;SDS011;51827;51.186;6.926;2022-09-21T06:46:06;4.18;;;1.73;;
65238;SDS011;51827;51.186;6.926;2022-09-21T06:47:06;4.67;;;2.07;;
65238;SDS011;51827;51.186;6.926;2022-09-21T06:48:06;5.97;;;2.20;;
65238;SDS011;51827;51.186;6.926;2022-09-21T06:49:07;4.30;;;1.80;;
65238;SDS011;51827;51.186;6.926;2022-09-21T06:50:07;4.13;;;1.87;;
65238;SDS011;51827;51.186;6.926;2022-09-21T06:51:08;3.63;;;1.90;;
65238;SDS011;51827;51.186;6.926;2022-09-21T06:52:08;3.35;;;1.80;;
65238;SDS011;51827;51.186;6.926;2022-09-21T06:53:08;3.63;;;1.80;;
65238;SDS011;51827;51.186;6.926;2022-09-21T06:54:09;3.20;;;1.80;;
65238;SDS011;51827;51.186;6.926;2022-09-21T06:55:09;3.93;;;1.60;;
65238;SDS011;51827;51.186;6.926;2022-09-21T06:56:09;3.08;;;1.50;;
65238;SDS011;51827;51.186;6.926;2022-09-21T06:57:10;4.23;;;1.83;;
65238;SDS011;51827;51.186;6.926;2022-09-21T06:58:10;3.83;;;1.60;;
65238;SDS011;51827;51.186;6.926;2022-09-21T06:59:10;3.87;;;1.50;;
65238;SDS011;51827;51.186;6.926;2022-09-21T07:00:11;3.67;;;1.80;;
65238;SDS011;51827;51.186;6.926;2022-09-21T07:01:12;3.38;;;1.60;;
65238;SDS011;51827;51.186;6.926;2022-09-21T07:02:13;5.97;;;2.03;;
65238;SDS011;51827;51.186;6.926;2022-09-21T07:03:14;3.90;;;1.83;;
65238;SDS011;51827;51.186;6.926;2022-09-21T07:04:14;4.37;;;2.00;;
65238;SDS011;51827;51.186;6.926;2022-09-21T07:05:14;4.00;;;1.70;;
65238;SDS011;51827;51.186;6.926;2022-09-21T07:06:15;4.53;;;1.63;;
65238;SDS011;51827;51.186;6.926;2022-09-21T07:07:16;2.95;;;1.40;;
65238;SDS011;51827;51.186;6.926;2022-09-21T07:08:16;3.10;;;1.63;;
65238;SDS011;51827;51.186;6.926;2022-09-21T07:09:16;3.07;;;1.70;;
65238;SDS011;51827;51.186;6.926;2022-09-21T07:10:16;4.00;;;1.53;;
65238;SDS011;51827;51.186;6.926;2022-09-21T07:11:17;2.97;;;1.40;;
65238;SDS011;51827;51.186;6.926;2022-09-21T07:12:17;3.40;;;1.60;;
65238;SDS011;51827;51.186;6.926;2022-09-21T07:13:17;2.40;;;1.40;;
65238;SDS011;51827;51.186;6.926;2022-09-21T07:14:18;3.13;;;1.47;;
65238;SDS011;51827;51.186;6.926;2022-09-21T07:15:18;4.93;;;1.53;;
65238;SDS011;51827;51.186;6.926;2022-09-21T07:16:18;3.55;;;1.80;;
65238;SDS011;51827;51.186;6.926;2022-09-21T07:17:19;3.03;;;1.50;;
65238;SDS011;51827;51.186;6.926;2022-09-21T07:18:19;2.57;;;1.40;;
65238;SDS011;51827;51.186;6.926;2022-09-21T07:19:20;2.85;;;1.65;;